sensor_id;sensor_type;location;lat;lon;timestamp;P1;durP1;ratioP1;P2;durP2;ratioP2
15697;SDS011;7949;48.726;9.102;2023-03-01T00:00:13;30.08;;;13.38;;
15697;SDS011;7949;48.726;9.102;2023-03-01T00:02:40;36.25;;;13.25;;
15697;SDS011;7949;48.726;9.102;2023-03-01T00:05:07;38.58;;;14.07;;
15697;SDS011;7949;48.726;9.102;2023-03-01T00:07:34;34.55;;;12.95;;
15697;SDS011;7949;48.726;9.102;2023-03-01T00:10:01;36.95;;;13.55;;
15697;SDS011;7949;48.726;9.102;2023-03-01T00:12:28;37.30;;;13.55;;
15697;SDS011;7949;48.726;9.102;2023-03-01T00:14:56;33.20;;;13.55;;
15697;SDS011;7949;48.726;9.102;2023-03-01T00:17:23;36.97;;;14.05;;
15697;SDS011;7949;48.726;9.102;2023-03-01T00:19:50;34.15;;;13.65;;
15697;SDS011;7949;48.726;9.102;2023-03-01T00:22:16;39.70;;;13.27;;
15697;SDS011;7949;48.726;9.102;2023-03-01T00:24:43;47.25;;;14.68;;
15697;SDS011;7949;48.726;9.102;2023-03-01T00:27:10;42.20;;;14.68;;
15697;SDS011;7949;48.726;9.102;2023-03-01T00:29:37;44.03;;;13.85;;
15697;SDS011;7949;48.726;9.102;2023-03-01T00:32:05;42.88;;;14.43;;
15697;SDS011;7949;48.726;9.102;2023-03-01T00:34:32;43.88;;;14.82;;
15697;SDS011;7949;48.726;9.102;2023-03-01T00:36:59;40.67;;;13.63;;
15697;SDS011;7949;48.726;9.102;2023-03-01T00:39:30;37.92;;;13.32;;
15697;SDS011;7949;48.726;9.102;2023-03-01T00:41:58;46.53;;;13.30;;
15697;SDS011;7949;48.726;9.102;2023-03-01T00:44:25;42.65;;;14.32;;
15697;SDS011;7949;48.726;9.102;2023-03-01T00:46:53;45.88;;;15.52;;
15697;SDS011;7949;48.726;9.102;2023-03-01T00:49:21;39.80;;;14.77;;
15697;SDS011;7949;48.726;9.102;2023-03-01T00:51:49;35.58;;;14.52;;
15697;SDS011;7949;48.726;9.102;2023-03-01T00:54:16;38.17;;;13.75;;
15697;SDS011;7949;48.726;9.102;2023-03-01T00:56:42;37.70;;;13.25;;
15697;SDS011;7949;48.726;9.102;2023-03-01T00:59:09;32.50;;;13.25;;
15697;SDS011;7949;48.726;9.102;2023-03-01T01:01:36;31.05;;;12.85;;
15697;SDS011;7949;48.726;9.102;2023-03-01T01:04:03;34.95;;;13.43;;
15697;SDS011;7949;48.726;9.102;2023-03-01T01:06:34;34.42;;;13.18;;
15697;SDS011;7949;48.726;9.102;2023-03-01T01:09:03;38.13;;;13.25;;
15697;SDS011;7949;48.726;9.102;2023-03-01T01:11:31;37.28;;;14.27;;
15697;SDS011;7949;48.726;9.102;2023-03-01T01:13:59;36.33;;;13.32;;
15697;SDS011;7949;48.726;9.102;2023-03-01T01:16:27;34.35;;;13.48;;
15697;SDS011;7949;48.726;9.102;2023-03-01T01:18:55;29.85;;;13.32;;
15697;SDS011;7949;48.726;9.102;2023-03-01T01:21:23;35.42;;;14.57;;
15697;SDS011;7949;48.726;9.102;2023-03-01T01:23:51;34.83;;;13.35;;
15697;SDS011;7949;48.726;9.102;2023-03-01T01:26:20;30.90;;;13.65;;
15697;SDS011;7949;48.726;9.102;2023-03-01T01:28:48;32.22;;;12.82;;
15697;SDS011;7949;48.726;9.102;2023-03-01T01:31:16;33.78;;;13.50;;
15697;SDS011;7949;48.726;9.102;2023-03-01T01:33:43;37.25;;;13.70;;
15697;SDS011;7949;48.726;9.102;2023-03-01T01:36:10;28.92;;;11.02;;
15697;SDS011;7949;48.726;9.102;2023-03-01T01:38:37;34.30;;;12.90;;
15697;SDS011;7949;48.726;9.102;2023-03-01T01:41:06;32.42;;;12.95;;
15697;SDS011;7949;48.726;9.102;2023-03-01T01:43:33;32.50;;;12.65;;
15697;SDS011;7949;48.726;9.102;2023-03-01T01:46:02;35.20;;;13.05;;
15697;SDS011;7949;48.726;9.102;2023-03-01T01:48:34;35.53;;;13.17;;
15697;SDS011;7949;48.726;9.102;2023-03-01T01:51:09;29.73;;;12.93;;
15697;SDS011;7949;48.726;9.102;2023-03-01T01:53:38;32.97;;;13.02;;
15697;SDS011;7949;48.726;9.102;2023-03-01T01:56:08;37.72;;;13.45;;
15697;SDS011;7949;48.726;9.102;2023-03-01T01:58:37;40.58;;;13.57;;
15697;SDS011;7949;48.726;9.102;2023-03-01T02:01:04;30.17;;;12.55;;
15697;SDS011;7949;48.726;9.102;2023-03-01T02:03:32;36.55;;;13.88;;
15697;SDS011;7949;48.726;9.102;2023-03-01T02:06:07;33.92;;;13.13;;
15697;SDS011;7949;48.726;9.102;2023-03-01T02:08:40;36.10;;;13.82;;
15697;SDS011;7949;48.726;9.102;2023-03-01T02:11:09;33.50;;;14.15;;
15697;SDS011;7949;48.726;9.102;2023-03-01T02:13:39;33.28;;;13.65;;
15697;SDS011;7949;48.726;9.102;2023-03-01T02:16:08;39.88;;;14.05;;
15697;SDS011;7949;48.726;9.102;2023-03-01T02:18:37;33.50;;;13.65;;
15697;SDS011;7949;48.726;9.102;2023-03-01T02:21:07;33.22;;;13.27;;
15697;SDS011;7949;48.726;9.102;2023-03-01T02:23:43;33.20;;;13.50;;
15697;SDS011;7949;48.726;9.102;2023-03-01T02:26:14;37.17;;;13.63;;
15697;SDS011;7949;48.726;9.102;2023-03-01T02:28:47;31.30;;;13.73;;
15697;SDS011;7949;48.726;9.102;2023-03-01T02:31:15;34.17;;;13.60;;
15697;SDS011;7949;48.726;9.102;2023-03-01T02:34:02;34.13;;;13.40;;
15697;SDS011;7949;48.726;9.102;2023-03-01T02:36:31;31.70;;;13.30;;
15697;SDS011;7949;48.726;9.102;2023-03-01T02:39:03;38.25;;;13.45;;
15697;SDS011;7949;48.726;9.102;2023-03-01T02:41:33;31.83;;;13.23;;
15697;SDS011;7949;48.726;9.102;2023-03-01T02:44:04;28.70;;;12.85;;
15697;SDS011;7949;48.726;9.102;2023-03-01T02:46:31;36.03;;;13.60;;
15697;SDS011;7949;48.726;9.102;2023-03-01T02:48:58;34.72;;;14.43;;
15697;SDS011;7949;48.726;9.102;2023-03-01T02:51:28;36.60;;;14.60;;
15697;SDS011;7949;48.726;9.102;2023-03-01T02:54:13;35.05;;;13.55;;
15697;SDS011;7949;48.726;9.102;2023-03-01T02:56:46;33.22;;;13.43;;
15697;SDS011;7949;48.726;9.102;2023-03-01T02:59:16;30.30;;;13.30;;
15697;SDS011;7949;48.726;9.102;2023-03-01T03:01:44;33.33;;;13.07;;
15697;SDS011;7949;48.726;9.102;2023-03-01T03:04:13;34.42;;;13.43;;
15697;SDS011;7949;48.726;9.102;2023-03-01T03:06:43;42.33;;;13.73;;
15697;SDS011;7949;48.726;9.102;2023-03-01T03:09:10;36.63;;;13.63;;
15697;SDS011;7949;48.726;9.102;2023-03-01T03:11:38;35.58;;;14.05;;
15697;SDS011;7949;48.726;9.102;2023-03-01T03:14:05;36.28;;;15.00;;
15697;SDS011;7949;48.726;9.102;2023-03-01T03:16:39;35.30;;;14.68;;
15697;SDS011;7949;48.726;9.102;2023-03-01T03:19:06;34.17;;;13.88;;
15697;SDS011;7949;48.726;9.102;2023-03-01T03:21:33;33.55;;;13.10;;
15697;SDS011;7949;48.726;9.102;2023-03-01T03:24:00;30.73;;;12.98;;
15697;SDS011;7949;48.726;9.102;2023-03-01T03:26:27;33.08;;;13.52;;
15697;SDS011;7949;48.726;9.102;2023-03-01T03:28:54;37.50;;;15.25;;
15697;SDS011;7949;48.726;9.102;2023-03-01T03:31:21;34.22;;;13.65;;
15697;SDS011;7949;48.726;9.102;2023-03-01T03:33:49;32.33;;;13.70;;
15697;SDS011;7949;48.726;9.102;2023-03-01T03:36:16;35.80;;;14.65;;
15697;SDS011;7949;48.726;9.102;2023-03-01T03:38:44;35.08;;;13.20;;
15697;SDS011;7949;48.726;9.102;2023-03-01T03:41:11;34.30;;;13.80;;
15697;SDS011;7949;48.726;9.102;2023-03-01T03:43:39;34.25;;;14.73;;
15697;SDS011;7949;48.726;9.102;2023-03-01T03:46:07;35.67;;;14.88;;
15697;SDS011;7949;48.726;9.102;2023-03-01T03:48:35;38.20;;;14.88;;
15697;SDS011;7949;48.726;9.102;2023-03-01T03:51:05;31.88;;;14.15;;
15697;SDS011;7949;48.726;9.102;2023-03-01T03:53:32;34.30;;;13.68;;
15697;SDS011;7949;48.726;9.102;2023-03-01T03:55:59;34.80;;;14.23;;
15697;SDS011;7949;48.726;9.102;2023-03-01T03:58:26;31.38;;;14.13;;
15697;SDS011;7949;48.726;9.102;2023-03-01T04:00:54;33.85;;;13.85;;
15697;SDS011;7949;48.726;9.102;2023-03-01T04:03:22;38.90;;;14.32;;
15697;SDS011;7949;48.726;9.102;2023-03-01T04:05:50;37.50;;;13.70;;
15697;SDS011;7949;48.726;9.102;2023-03-01T04:08:19;32.20;;;13.82;;
15697;SDS011;7949;48.726;9.102;2023-03-01T04:10:48;29.55;;;13.27;;
15697;SDS011;7949;48.726;9.102;2023-03-01T04:13:16;37.70;;;14.95;;
15697;SDS011;7949;48.726;9.102;2023-03-01T04:15:45;37.38;;;14.77;;
15697;SDS011;7949;48.726;9.102;2023-03-01T04:18:12;34.35;;;14.25;;
15697;SDS011;7949;48.726;9.102;2023-03-01T04:20:41;41.35;;;14.40;;
15697;SDS011;7949;48.726;9.102;2023-03-01T04:23:11;34.75;;;14.35;;
15697;SDS011;7949;48.726;9.102;2023-03-01T04:25:42;36.78;;;14.85;;
15697;SDS011;7949;48.726;9.102;2023-03-01T04:28:14;37.17;;;15.82;;
15697;SDS011;7949;48.726;9.102;2023-03-01T04:30:42;34.97;;;14.90;;
15697;SDS011;7949;48.726;9.102;2023-03-01T04:33:09;35.47;;;15.40;;
15697;SDS011;7949;48.726;9.102;2023-03-01T04:35:36;32.42;;;14.23;;
15697;SDS011;7949;48.726;9.102;2023-03-01T04:38:04;31.98;;;14.45;;
15697;SDS011;7949;48.726;9.102;2023-03-01T04:40:31;34.83;;;14.93;;
15697;SDS011;7949;48.726;9.102;2023-03-01T04:43:00;37.60;;;14.98;;
15697;SDS011;7949;48.726;9.102;2023-03-01T04:45:27;33.45;;;14.68;;
15697;SDS011;7949;48.726;9.102;2023-03-01T04:47:54;33.00;;;14.25;;
15697;SDS011;7949;48.726;9.102;2023-03-01T04:50:23;35.30;;;14.65;;
15697;SDS011;7949;48.726;9.102;2023-03-01T04:52:51;47.35;;;14.85;;
15697;SDS011;7949;48.726;9.102;2023-03-01T04:55:18;32.45;;;15.23;;
15697;SDS011;7949;48.726;9.102;2023-03-01T04:57:45;36.28;;;15.10;;
15697;SDS011;7949;48.726;9.102;2023-03-01T05:00:15;30.45;;;14.02;;
15697;SDS011;7949;48.726;9.102;2023-03-01T05:02:48;40.83;;;15.73;;
15697;SDS011;7949;48.726;9.102;2023-03-01T05:05:19;40.03;;;16.23;;
15697;SDS011;7949;48.726;9.102;2023-03-01T05:07:50;36.08;;;15.27;;
15697;SDS011;7949;48.726;9.102;2023-03-01T05:10:21;39.67;;;16.60;;
15697;SDS011;7949;48.726;9.102;2023-03-01T05:12:48;38.67;;;14.75;;
15697;SDS011;7949;48.726;9.102;2023-03-01T05:15:18;38.20;;;15.38;;
15697;SDS011;7949;48.726;9.102;2023-03-01T05:17:46;40.20;;;14.48;;
15697;SDS011;7949;48.726;9.102;2023-03-01T05:20:13;36.97;;;15.40;;
15697;SDS011;7949;48.726;9.102;2023-03-01T05:22:41;35.97;;;15.90;;
15697;SDS011;7949;48.726;9.102;2023-03-01T05:25:08;41.70;;;15.50;;
15697;SDS011;7949;48.726;9.102;2023-03-01T05:27:35;37.22;;;16.48;;
15697;SDS011;7949;48.726;9.102;2023-03-01T05:30:02;41.25;;;15.95;;
15697;SDS011;7949;48.726;9.102;2023-03-01T05:32:40;31.90;;;13.73;;
15697;SDS011;7949;48.726;9.102;2023-03-01T05:35:09;37.72;;;15.00;;
15697;SDS011;7949;48.726;9.102;2023-03-01T05:37:38;38.42;;;14.77;;
15697;SDS011;7949;48.726;9.102;2023-03-01T05:40:07;36.22;;;15.55;;
15697;SDS011;7949;48.726;9.102;2023-03-01T05:42:40;42.03;;;15.88;;
15697;SDS011;7949;48.726;9.102;2023-03-01T05:45:08;41.88;;;16.67;;
15697;SDS011;7949;48.726;9.102;2023-03-01T05:47:37;38.30;;;15.32;;
15697;SDS011;7949;48.726;9.102;2023-03-01T05:50:09;32.63;;;14.93;;
15697;SDS011;7949;48.726;9.102;2023-03-01T05:52:43;42.67;;;16.15;;
15697;SDS011;7949;48.726;9.102;2023-03-01T05:55:10;36.33;;;14.95;;
15697;SDS011;7949;48.726;9.102;2023-03-01T05:57:37;33.72;;;15.20;;
15697;SDS011;7949;48.726;9.102;2023-03-01T06:00:04;43.03;;;14.88;;
15697;SDS011;7949;48.726;9.102;2023-03-01T06:02:32;42.78;;;16.38;;
15697;SDS011;7949;48.726;9.102;2023-03-01T06:05:00;36.40;;;16.55;;
15697;SDS011;7949;48.726;9.102;2023-03-01T06:07:27;44.33;;;17.08;;
15697;SDS011;7949;48.726;9.102;2023-03-01T06:09:54;36.50;;;15.48;;
15697;SDS011;7949;48.726;9.102;2023-03-01T06:12:21;36.65;;;15.35;;
15697;SDS011;7949;48.726;9.102;2023-03-01T06:14:48;37.35;;;15.20;;
15697;SDS011;7949;48.726;9.102;2023-03-01T06:17:14;39.10;;;15.32;;
15697;SDS011;7949;48.726;9.102;2023-03-01T06:19:41;36.78;;;15.68;;
15697;SDS011;7949;48.726;9.102;2023-03-01T06:22:09;37.38;;;15.68;;
15697;SDS011;7949;48.726;9.102;2023-03-01T06:24:36;37.13;;;15.85;;
15697;SDS011;7949;48.726;9.102;2023-03-01T06:27:03;38.38;;;17.00;;
15697;SDS011;7949;48.726;9.102;2023-03-01T06:29:30;40.70;;;17.05;;
15697;SDS011;7949;48.726;9.102;2023-03-01T06:31:56;45.22;;;16.23;;
15697;SDS011;7949;48.726;9.102;2023-03-01T06:34:23;36.33;;;15.88;;
15697;SDS011;7949;48.726;9.102;2023-03-01T06:36:50;34.78;;;16.10;;
15697;SDS011;7949;48.726;9.102;2023-03-01T16:53:24;35.13;;;14.57;;
15697;SDS011;7949;48.726;9.102;2023-03-01T16:56:01;33.25;;;14.13;;
15697;SDS011;7949;48.726;9.102;2023-03-01T16:58:30;33.25;;;13.63;;
15697;SDS011;7949;48.726;9.102;2023-03-01T17:01:02;31.85;;;14.20;;
15697;SDS011;7949;48.726;9.102;2023-03-01T17:03:30;31.95;;;13.85;;
15697;SDS011;7949;48.726;9.102;2023-03-01T17:05:56;29.58;;;13.93;;
15697;SDS011;7949;48.726;9.102;2023-03-01T17:08:28;32.22;;;15.20;;
15697;SDS011;7949;48.726;9.102;2023-03-01T17:10:55;35.08;;;14.98;;
15697;SDS011;7949;48.726;9.102;2023-03-01T17:13:27;35.60;;;13.80;;
15697;SDS011;7949;48.726;9.102;2023-03-01T17:15:54;33.72;;;15.10;;
15697;SDS011;7949;48.726;9.102;2023-03-01T17:18:20;31.15;;;14.30;;
15697;SDS011;7949;48.726;9.102;2023-03-01T17:20:47;35.35;;;15.13;;
15697;SDS011;7949;48.726;9.102;2023-03-01T17:23:14;34.65;;;14.57;;
15697;SDS011;7949;48.726;9.102;2023-03-01T17:25:43;31.40;;;14.57;;
15697;SDS011;7949;48.726;9.102;2023-03-01T17:28:10;36.20;;;15.60;;
15697;SDS011;7949;48.726;9.102;2023-03-01T17:30:40;36.40;;;14.93;;
15697;SDS011;7949;48.726;9.102;2023-03-01T17:33:08;31.58;;;14.77;;
15697;SDS011;7949;48.726;9.102;2023-03-01T17:35:36;34.00;;;13.63;;
15697;SDS011;7949;48.726;9.102;2023-03-01T17:38:02;33.65;;;14.30;;
15697;SDS011;7949;48.726;9.102;2023-03-01T17:40:29;37.88;;;14.20;;
15697;SDS011;7949;48.726;9.102;2023-03-01T17:42:58;31.27;;;14.10;;
15697;SDS011;7949;48.726;9.102;2023-03-01T17:45:25;29.92;;;13.57;;
15697;SDS011;7949;48.726;9.102;2023-03-01T17:47:52;34.08;;;14.95;;
15697;SDS011;7949;48.726;9.102;2023-03-01T17:50:18;36.88;;;16.60;;
15697;SDS011;7949;48.726;9.102;2023-03-01T17:52:45;33.72;;;16.13;;
15697;SDS011;7949;48.726;9.102;2023-03-01T17:55:12;32.58;;;14.48;;
15697;SDS011;7949;48.726;9.102;2023-03-01T17:57:39;30.52;;;14.48;;
15697;SDS011;7949;48.726;9.102;2023-03-01T18:00:09;32.22;;;14.52;;
15697;SDS011;7949;48.726;9.102;2023-03-01T18:02:37;33.83;;;13.73;;
15697;SDS011;7949;48.726;9.102;2023-03-01T18:05:04;31.08;;;14.20;;
15697;SDS011;7949;48.726;9.102;2023-03-01T18:07:32;28.42;;;13.60;;
15697;SDS011;7949;48.726;9.102;2023-03-01T18:09:59;34.10;;;14.55;;
15697;SDS011;7949;48.726;9.102;2023-03-01T18:12:26;32.65;;;14.55;;
15697;SDS011;7949;48.726;9.102;2023-03-01T18:14:53;30.02;;;14.40;;
15697;SDS011;7949;48.726;9.102;2023-03-01T18:17:22;31.27;;;14.02;;
15697;SDS011;7949;48.726;9.102;2023-03-01T18:19:50;29.85;;;13.77;;
15697;SDS011;7949;48.726;9.102;2023-03-01T18:22:17;37.90;;;14.85;;
15697;SDS011;7949;48.726;9.102;2023-03-01T18:24:44;35.20;;;14.60;;
15697;SDS011;7949;48.726;9.102;2023-03-01T18:27:11;35.20;;;14.25;;
15697;SDS011;7949;48.726;9.102;2023-03-01T18:29:38;32.35;;;14.48;;
15697;SDS011;7949;48.726;9.102;2023-03-01T18:32:05;46.97;;;16.73;;
15697;SDS011;7949;48.726;9.102;2023-03-01T18:34:34;37.58;;;14.93;;
15697;SDS011;7949;48.726;9.102;2023-03-01T18:37:01;35.97;;;15.30;;
15697;SDS011;7949;48.726;9.102;2023-03-01T18:39:28;36.72;;;15.30;;
15697;SDS011;7949;48.726;9.102;2023-03-01T18:41:55;35.00;;;15.13;;
15697;SDS011;7949;48.726;9.102;2023-03-01T18:44:22;33.58;;;14.43;;
15697;SDS011;7949;48.726;9.102;2023-03-01T18:46:48;33.67;;;13.68;;
15697;SDS011;7949;48.726;9.102;2023-03-01T18:49:17;33.13;;;13.88;;
15697;SDS011;7949;48.726;9.102;2023-03-01T18:51:45;36.13;;;16.08;;
15697;SDS011;7949;48.726;9.102;2023-03-01T18:54:14;38.47;;;16.00;;
15697;SDS011;7949;48.726;9.102;2023-03-01T18:56:41;42.33;;;16.98;;
15697;SDS011;7949;48.726;9.102;2023-03-01T18:59:08;39.90;;;16.02;;
15697;SDS011;7949;48.726;9.102;2023-03-01T19:01:35;36.17;;;15.15;;
15697;SDS011;7949;48.726;9.102;2023-03-01T19:04:02;38.05;;;15.43;;
15697;SDS011;7949;48.726;9.102;2023-03-01T19:06:31;35.38;;;14.65;;
15697;SDS011;7949;48.726;9.102;2023-03-01T19:09:00;40.15;;;15.68;;
15697;SDS011;7949;48.726;9.102;2023-03-01T19:11:28;38.00;;;16.02;;
15697;SDS011;7949;48.726;9.102;2023-03-01T19:13:57;37.72;;;16.02;;
15697;SDS011;7949;48.726;9.102;2023-03-01T19:16:26;39.70;;;15.93;;
15697;SDS011;7949;48.726;9.102;2023-03-01T19:18:55;34.97;;;15.10;;
15697;SDS011;7949;48.726;9.102;2023-03-01T19:21:24;38.08;;;16.35;;
15697;SDS011;7949;48.726;9.102;2023-03-01T19:23:52;35.22;;;15.13;;
15697;SDS011;7949;48.726;9.102;2023-03-01T19:26:22;43.10;;;15.98;;
15697;SDS011;7949;48.726;9.102;2023-03-01T19:28:50;38.85;;;17.27;;
15697;SDS011;7949;48.726;9.102;2023-03-01T19:31:19;43.00;;;17.50;;
15697;SDS011;7949;48.726;9.102;2023-03-01T19:33:49;41.90;;;17.35;;
15697;SDS011;7949;48.726;9.102;2023-03-01T19:36:17;41.63;;;17.52;;
15697;SDS011;7949;48.726;9.102;2023-03-01T19:38:45;47.00;;;17.83;;
15697;SDS011;7949;48.726;9.102;2023-03-01T19:41:13;55.05;;;19.23;;
15697;SDS011;7949;48.726;9.102;2023-03-01T19:43:44;44.63;;;16.77;;
15697;SDS011;7949;48.726;9.102;2023-03-01T19:46:11;44.25;;;16.10;;
15697;SDS011;7949;48.726;9.102;2023-03-01T19:48:39;41.55;;;17.05;;
15697;SDS011;7949;48.726;9.102;2023-03-01T19:51:06;43.17;;;16.85;;
15697;SDS011;7949;48.726;9.102;2023-03-01T19:53:33;44.33;;;17.20;;
15697;SDS011;7949;48.726;9.102;2023-03-01T19:56:00;39.00;;;16.98;;
15697;SDS011;7949;48.726;9.102;2023-03-01T19:58:28;43.33;;;18.77;;
15697;SDS011;7949;48.726;9.102;2023-03-01T20:00:58;45.17;;;16.35;;
15697;SDS011;7949;48.726;9.102;2023-03-01T20:03:25;42.22;;;18.17;;
15697;SDS011;7949;48.726;9.102;2023-03-01T20:05:53;45.03;;;17.92;;
15697;SDS011;7949;48.726;9.102;2023-03-01T20:08:21;45.35;;;18.27;;
15697;SDS011;7949;48.726;9.102;2023-03-01T20:10:48;37.63;;;16.02;;
15697;SDS011;7949;48.726;9.102;2023-03-01T20:13:16;40.47;;;14.93;;
15697;SDS011;7949;48.726;9.102;2023-03-01T20:15:45;42.17;;;17.15;;
15697;SDS011;7949;48.726;9.102;2023-03-01T20:18:13;47.92;;;17.77;;
15697;SDS011;7949;48.726;9.102;2023-03-01T20:20:40;41.67;;;16.73;;
15697;SDS011;7949;48.726;9.102;2023-03-01T20:23:07;45.20;;;17.48;;
15697;SDS011;7949;48.726;9.102;2023-03-01T20:25:34;45.60;;;17.15;;
15697;SDS011;7949;48.726;9.102;2023-03-01T20:28:01;49.50;;;17.00;;
15697;SDS011;7949;48.726;9.102;2023-03-01T20:30:28;44.08;;;16.25;;
15697;SDS011;7949;48.726;9.102;2023-03-01T20:32:55;44.30;;;17.85;;
15697;SDS011;7949;48.726;9.102;2023-03-01T20:35:24;43.42;;;17.50;;
15697;SDS011;7949;48.726;9.102;2023-03-01T20:37:52;45.90;;;16.77;;
15697;SDS011;7949;48.726;9.102;2023-03-01T20:40:19;47.92;;;18.02;;
15697;SDS011;7949;48.726;9.102;2023-03-01T20:42:51;45.78;;;18.23;;
15697;SDS011;7949;48.726;9.102;2023-03-01T20:45:18;50.53;;;19.10;;
15697;SDS011;7949;48.726;9.102;2023-03-01T20:47:49;55.58;;;20.45;;
15697;SDS011;7949;48.726;9.102;2023-03-01T20:50:17;65.18;;;21.70;;
15697;SDS011;7949;48.726;9.102;2023-03-01T20:52:46;58.00;;;21.15;;
15697;SDS011;7949;48.726;9.102;2023-03-01T20:55:13;61.75;;;21.40;;
15697;SDS011;7949;48.726;9.102;2023-03-01T20:57:39;49.38;;;19.92;;
15697;SDS011;7949;48.726;9.102;2023-03-01T21:00:08;54.42;;;19.92;;
15697;SDS011;7949;48.726;9.102;2023-03-01T21:02:38;57.03;;;20.65;;
15697;SDS011;7949;48.726;9.102;2023-03-01T21:05:09;55.35;;;19.58;;
15697;SDS011;7949;48.726;9.102;2023-03-01T21:07:36;53.28;;;20.40;;
15697;SDS011;7949;48.726;9.102;2023-03-01T21:10:04;52.72;;;20.70;;
15697;SDS011;7949;48.726;9.102;2023-03-01T21:12:31;54.05;;;19.67;;
15697;SDS011;7949;48.726;9.102;2023-03-01T21:14:58;57.55;;;20.58;;
15697;SDS011;7949;48.726;9.102;2023-03-01T21:17:25;52.85;;;18.58;;
15697;SDS011;7949;48.726;9.102;2023-03-01T21:19:52;47.33;;;19.08;;
15697;SDS011;7949;48.726;9.102;2023-03-01T21:22:19;47.08;;;19.05;;
15697;SDS011;7949;48.726;9.102;2023-03-01T21:24:46;50.08;;;20.17;;
15697;SDS011;7949;48.726;9.102;2023-03-01T21:27:15;53.95;;;18.75;;
15697;SDS011;7949;48.726;9.102;2023-03-01T21:29:43;49.03;;;18.65;;
15697;SDS011;7949;48.726;9.102;2023-03-01T21:32:15;48.75;;;19.58;;
15697;SDS011;7949;48.726;9.102;2023-03-01T21:34:43;47.53;;;17.73;;
15697;SDS011;7949;48.726;9.102;2023-03-01T21:37:10;49.13;;;17.77;;
15697;SDS011;7949;48.726;9.102;2023-03-01T21:39:37;49.58;;;18.13;;
15697;SDS011;7949;48.726;9.102;2023-03-01T21:42:04;43.53;;;17.50;;
15697;SDS011;7949;48.726;9.102;2023-03-01T21:44:33;48.00;;;19.02;;
15697;SDS011;7949;48.726;9.102;2023-03-01T21:47:00;50.78;;;18.95;;
15697;SDS011;7949;48.726;9.102;2023-03-01T21:49:27;47.47;;;19.10;;
15697;SDS011;7949;48.726;9.102;2023-03-01T21:51:54;46.45;;;17.85;;
15697;SDS011;7949;48.726;9.102;2023-03-01T21:54:21;49.60;;;18.45;;
15697;SDS011;7949;48.726;9.102;2023-03-01T21:56:48;44.95;;;18.00;;
15697;SDS011;7949;48.726;9.102;2023-03-01T21:59:16;49.88;;;19.42;;
15697;SDS011;7949;48.726;9.102;2023-03-01T22:01:45;42.38;;;17.35;;
15697;SDS011;7949;48.726;9.102;2023-03-01T22:04:14;45.75;;;18.02;;
15697;SDS011;7949;48.726;9.102;2023-03-01T22:06:42;48.25;;;18.05;;
15697;SDS011;7949;48.726;9.102;2023-03-01T22:09:12;42.17;;;18.15;;
15697;SDS011;7949;48.726;9.102;2023-03-01T22:11:41;45.88;;;18.45;;
15697;SDS011;7949;48.726;9.102;2023-03-01T22:14:09;41.45;;;16.17;;
15697;SDS011;7949;48.726;9.102;2023-03-01T22:16:38;41.38;;;17.30;;
15697;SDS011;7949;48.726;9.102;2023-03-01T22:19:07;41.20;;;18.25;;
15697;SDS011;7949;48.726;9.102;2023-03-01T22:21:34;47.63;;;18.30;;
15697;SDS011;7949;48.726;9.102;2023-03-01T22:24:04;47.35;;;18.27;;
15697;SDS011;7949;48.726;9.102;2023-03-01T22:26:33;46.33;;;16.80;;
15697;SDS011;7949;48.726;9.102;2023-03-01T22:29:02;44.55;;;17.95;;
15697;SDS011;7949;48.726;9.102;2023-03-01T22:31:31;43.00;;;17.25;;
15697;SDS011;7949;48.726;9.102;2023-03-01T22:33:58;40.58;;;16.70;;
15697;SDS011;7949;48.726;9.102;2023-03-01T22:36:27;40.67;;;17.15;;
15697;SDS011;7949;48.726;9.102;2023-03-01T22:38:55;43.08;;;18.13;;
15697;SDS011;7949;48.726;9.102;2023-03-01T22:41:24;46.97;;;17.23;;
15697;SDS011;7949;48.726;9.102;2023-03-01T22:43:52;42.53;;;16.60;;
15697;SDS011;7949;48.726;9.102;2023-03-01T22:46:19;42.72;;;17.50;;
15697;SDS011;7949;48.726;9.102;2023-03-01T22:48:48;41.95;;;16.52;;
15697;SDS011;7949;48.726;9.102;2023-03-01T22:51:15;42.50;;;18.85;;
15697;SDS011;7949;48.726;9.102;2023-03-01T22:53:45;42.22;;;16.88;;
15697;SDS011;7949;48.726;9.102;2023-03-01T22:56:12;41.30;;;16.85;;
15697;SDS011;7949;48.726;9.102;2023-03-01T22:58:41;45.38;;;18.25;;
15697;SDS011;7949;48.726;9.102;2023-03-01T23:01:12;46.47;;;19.13;;
15697;SDS011;7949;48.726;9.102;2023-03-01T23:03:40;43.97;;;17.35;;
15697;SDS011;7949;48.726;9.102;2023-03-01T23:06:08;42.70;;;17.35;;
15697;SDS011;7949;48.726;9.102;2023-03-01T23:08:35;43.63;;;17.38;;
15697;SDS011;7949;48.726;9.102;2023-03-01T23:11:08;48.10;;;17.60;;
15697;SDS011;7949;48.726;9.102;2023-03-01T23:13:36;42.63;;;17.85;;
15697;SDS011;7949;48.726;9.102;2023-03-01T23:16:04;45.53;;;16.67;;
15697;SDS011;7949;48.726;9.102;2023-03-01T23:18:31;45.30;;;18.05;;
15697;SDS011;7949;48.726;9.102;2023-03-01T23:20:59;44.53;;;18.38;;
15697;SDS011;7949;48.726;9.102;2023-03-01T23:23:26;40.08;;;17.30;;
15697;SDS011;7949;48.726;9.102;2023-03-01T23:25:53;44.40;;;18.48;;
15697;SDS011;7949;48.726;9.102;2023-03-01T23:28:23;43.47;;;18.27;;
15697;SDS011;7949;48.726;9.102;2023-03-01T23:30:54;41.25;;;16.30;;
15697;SDS011;7949;48.726;9.102;2023-03-01T23:33:22;46.70;;;17.17;;
15697;SDS011;7949;48.726;9.102;2023-03-01T23:35:49;46.75;;;17.38;;
15697;SDS011;7949;48.726;9.102;2023-03-01T23:38:16;46.78;;;17.98;;
15697;SDS011;7949;48.726;9.102;2023-03-01T23:40:44;49.53;;;18.65;;
15697;SDS011;7949;48.726;9.102;2023-03-01T23:43:11;44.22;;;18.20;;
15697;SDS011;7949;48.726;9.102;2023-03-01T23:45:40;40.83;;;17.70;;
15697;SDS011;7949;48.726;9.102;2023-03-01T23:48:08;40.70;;;18.30;;
15697;SDS011;7949;48.726;9.102;2023-03-01T23:50:36;39.97;;;16.92;;
15697;SDS011;7949;48.726;9.102;2023-03-01T23:53:06;45.80;;;19.42;;
15697;SDS011;7949;48.726;9.102;2023-03-01T23:55:35;46.80;;;17.35;;
15697;SDS011;7949;48.726;9.102;2023-03-01T23:58:04;47.40;;;18.73;;
